KASL/ASL METAR and TAF weather

Enter ICAO airport designator
Station Type Date Time Source
KASL METAR 2018/12/10 17:15 UTC NOAA

KASL 101715Z AUTO 00000KT 10SM CLR 07/M02 A3041 RMK AO1 T00721021


Station Type Date Time Source
KASL Decoded METAR 2018/12/10 17:15 UTC NOAA

Station name not available
Dec 10, 2018 - 12:15 PM EST / 2018.12.10 1715 UTC
Wind: Calm:0
Visibility: 10 mile(s):0
Sky conditions: clear
Temperature: 45.0 F (7.2 C)
Dew Point: 28.2 F (-2.1 C)
Relative Humidity: 51%
Pressure (altimeter): 30.41 in. Hg (1029 hPa)
ob: KASL 101715Z AUTO 00000KT 10SM CLR 07/M02 A3041 RMK AO1 T00721021
cycle: 17

Station Type Date Time Source
KASL TAF UTC NOAA

Error!


Example: see airport list